ADDS METAR Data INFO
IDs: Format: Raw Decoded Include TAF

Data at: 0143 UTC 26 Feb 2018

KSNL 260135Z AUTO 00000KT 10SM CLR 11/01 A3001 RMK AO2 T01110010
KSNL 260115Z AUTO 14005KT 10SM CLR 11/01 A2999 RMK AO2 T01140012
KSNL 260055Z AUTO 15005KT 10SM CLR 12/01 A2999 RMK AO2 T01200010
KSNL 260035Z AUTO 16005KT 10SM CLR 12/01 A2999 RMK AO2 T01150008
KSNL 260015Z AUTO 16006KT 10SM CLR 12/01 A2998 RMK AO2 T01220012
KSNL 252355Z AUTO 21005KT 10SM CLR 15/01 A2998 RMK AO2 T01480005 10172 20125
KSNL 252335Z AUTO 21008KT 10SM CLR 16/00 A2997 RMK AO2 T01590001
KSNL 252315Z AUTO 21008KT 10SM CLR 16/00 A2996 RMK AO2 T01620002
KSNL 252255Z AUTO 23007KT 10SM CLR 17/M01 A2995 RMK AO2 T01661007
KSNL 252235Z AUTO 19006KT 10SM CLR 17/01 A2995 RMK AO2 T01690007
KSNL 252215Z AUTO 22010G14KT 10SM CLR 17/00 A2995 RMK AO2 T01690000
KSNL 252155Z AUTO 17010KT 10SM CLR 17/00 A2995 RMK AO2 T01670004
KSNL 252135Z AUTO 19010G15KT 10SM CLR 17/01 A2995 RMK AO2 T01680009
KSNL 252115Z AUTO 21008G11KT 10SM CLR 17/01 A2996 RMK AO2 T01690013
KSNL 252055Z AUTO 21012KT 10SM CLR 17/01 A2997 RMK AO2 T01700012
KSNL 252035Z AUTO 20010KT 10SM CLR 17/01 A2998 RMK AO2 T01660008
KSNL 252015Z AUTO 20011G18KT 10SM CLR 17/01 A2999 RMK AO2 T01650014
KSNL 251955Z AUTO 21011G15KT 10SM CLR 16/02 A2999 RMK AO2 T01580024
KSNL 251935Z AUTO 22012G16KT 10SM CLR 15/02 A2999 RMK AO2 T01540022
KSNL 251915Z AUTO 22011G16KT 10SM CLR 15/03 A3000 RMK AO2 T01520028
KSNL 251855Z AUTO 21010G18KT 10SM CLR 14/02 A3002 RMK AO2 T01440022
KSNL 251835Z AUTO 20012G16KT 10SM CLR 14/03 A3003 RMK AO2 T01390025
KSNL 251815Z AUTO 18011KT 10SM CLR 13/02 A3004 RMK AO2 T01290022
KSNL 251755Z AUTO 18011KT 10SM CLR 13/02 A3005 RMK AO2 T01250021 10125 21032
KSNL 251735Z AUTO 21011KT 10SM CLR 12/02 A3005 RMK AO2 T01150021
KSNL 251715Z AUTO 17014KT 10SM CLR 11/01 A3006 RMK AO2 T01100008
KSNL 251655Z AUTO 16013KT 10SM CLR 10/00 A3006 RMK AO2 T01010003
KSNL 251635Z AUTO 15008KT 10SM CLR 10/00 A3007 RMK AO2 T01021002
KSNL 251615Z AUTO 14012G16KT 10SM CLR 10/M02 A3007 RMK AO2 T00971016
KSNL 251555Z AUTO 13012G16KT 10SM CLR 09/00 A3007 RMK AO2 T00861005
KSNL 251535Z AUTO 14007KT 10SM CLR 07/02 A3007 RMK AO2 T00710022
KSNL 251515Z AUTO 14005KT 10SM CLR 06/03 A3008 RMK AO2 T00590026
KSNL 251455Z AUTO 14005KT 10SM CLR 05/03 A3008 RMK AO2 T00450025
KSNL 251435Z AUTO 14003KT 4SM BR CLR 03/02 A3008 RMK AO2 T00260023
KSNL 251415Z AUTO 00000KT 3SM BR CLR 01/00 A3007 RMK AO2 T00050002
KSNL 251355Z AUTO 00000KT 2SM BR CLR 00/M01 A3006 RMK AO2 VIS 1V3 T10031006
KSNL 251335Z AUTO 00000KT 4SM BR CLR 00/00 A3006 RMK AO2 T10021005
KSNL 251315Z AUTO 18003KT 5SM BR CLR M01/M01 A3006 RMK AO2 T10081010
KSNL 251255Z AUTO 17004KT 7SM CLR M02/M02 A3005 RMK AO2 T10161019
KSNL 251235Z AUTO 17005KT 7SM CLR M02/M03 A3004 RMK AO2 T10251029
KSNL 251215Z AUTO 19005KT 10SM SCT002 M03/M03 A3003 RMK AO2 T10271031
KSNL 251155Z AUTO 20004KT 1/2SM FZFG BKN002 M03/M04 A3002 RMK AO2 70064 T10331037 10015 21033
KSNL 251135Z AUTO 00000KT 3SM BR CLR M02/M02 A3001 RMK AO2 T10171021
KSNL 251115Z AUTO 00000KT 7SM CLR M01/M01 A3000 RMK AO2 T10101013
KSNL 251055Z AUTO 00000KT 7SM CLR M02/M02 A3000 RMK AO2 T10201023
KSNL 251035Z AUTO 00000KT 5SM BR CLR M02/M02 A2999 RMK AO2 T10171022
KSNL 251015Z AUTO 00000KT 10SM CLR 00/00 A2999 RMK AO2 T00040000
KSNL 250955Z AUTO 00000KT 10SM CLR 00/00 A3000 RMK AO2 T00001005
KSNL 250935Z AUTO 16003KT 10SM CLR 00/00 A3000 RMK AO2 T00011004
KSNL 250915Z AUTO 15004KT 10SM CLR 00/M01 A3000 RMK AO2 T10031010
KSNL 250855Z AUTO 16003KT 10SM CLR 00/00 A3000 RMK AO2 T00011003
KSNL 250835Z AUTO 00000KT 10SM CLR 00/M01 A3000 RMK AO2 T00001007
KSNL 250815Z AUTO 17003KT 10SM CLR M01/M01 A3001 RMK AO2 T10101015
KSNL 250755Z AUTO 00000KT 10SM CLR 01/00 A3002 RMK AO2 T00050000
KSNL 250735Z AUTO 00000KT 10SM CLR 00/00 A3002 RMK AO2 T10011005
KSNL 250715Z AUTO 00000KT 10SM CLR 00/M01 A3002 RMK AO2 T10021006
KSNL 250655Z AUTO 00000KT 10SM CLR 00/00 A3002 RMK AO2 T00001002
KSNL 250635Z AUTO 22003KT 7SM CLR 00/00 A3002 RMK AO2 T00001005
KSNL 250615Z AUTO 00000KT 10SM CLR 01/00 A3002 RMK AO2 T00050000
KSNL 250555Z AUTO 00000KT 10SM CLR 02/00 A3002 RMK AO2 T00150003 10090 20009 401260009
KSNL 250535Z AUTO 00000KT 10SM CLR 02/01 A3002 RMK AO2 T00180007
KSNL 250515Z AUTO 00000KT 10SM CLR 01/00 A3002 RMK AO2 T00110000
KSNL 250455Z AUTO 00000KT 10SM CLR 02/00 A3002 RMK AO2 T00190004
KSNL 250435Z AUTO 00000KT 10SM CLR 03/01 A3002 RMK AO2 T00250010
KSNL 250415Z AUTO 00000KT 10SM CLR 02/01 A3001 RMK AO2 T00230009
KSNL 250355Z AUTO 00000KT 10SM CLR 03/01 A3001 RMK AO2 T00290007
KSNL 250335Z AUTO 00000KT 10SM CLR 04/01 A3001 RMK AO2 T00350008
KSNL 250315Z AUTO 00000KT 10SM CLR 05/01 A3000 RMK AO2 T00450013
KSNL 250255Z AUTO 00000KT 10SM CLR 04/01 A3000 RMK AO2 T00400011
KSNL 250235Z AUTO 36004KT 10SM CLR 04/01 A2999 RMK AO2 T00400011
KSNL 250215Z AUTO 34006KT 10SM CLR 05/01 A2998 RMK AO2 T00500013
KSNL 250155Z AUTO 33008KT 10SM CLR 05/02 A2997 RMK AO2 T00460016
KSNL 250135Z AUTO 32006KT 10SM CLR 05/02 A2996 RMK AO2 T00500016
KSNL 250115Z AUTO 33006KT 10SM CLR 05/02 A2995 RMK AO2 T00530017
KSNL 250055Z AUTO 32005KT 10SM CLR 06/02 A2994 RMK AO2 T00560020
KSNL 250035Z AUTO 32008KT 10SM CLR 07/02 A2993 RMK AO2 T00740022
KSNL 250015Z AUTO 32008KT 10SM CLR 08/03 A2992 RMK AO2 T00810025
KSNL 242355Z AUTO 31012G17KT 10SM CLR 09/02 A2992 RMK AO2 T00910022 10126 20052
KSNL 242335Z AUTO 31013G17KT 10SM CLR 10/03 A2991 RMK AO2 T00990026
KSNL 242315Z AUTO 31012KT 10SM CLR 11/03 A2989 RMK AO2 T01050032
KSNL 242255Z AUTO 30010KT 10SM CLR 11/04 A2987 RMK AO2 T01100044
KSNL 242235Z AUTO 30012G17KT 10SM SCT031 12/04 A2987 RMK AO2 T01150043
KSNL 242215Z AUTO 31009G15KT 10SM SCT029 12/05 A2985 RMK AO2 T01150050
KSNL 242155Z AUTO 31015G25KT 10SM SCT029 12/05 A2984 RMK AO2 T01160051
KSNL 242135Z AUTO 31018G25KT 10SM BKN027 11/06 A2983 RMK AO2 T01140055
KSNL 242115Z AUTO 31013G22KT 10SM BKN027 12/06 A2981 RMK AO2 T01150061
KSNL 242055Z AUTO 29013KT 10SM SCT027 12/06 A2981 RMK AO2 T01240064
KSNL 242035Z AUTO 29013G17KT 10SM CLR 12/06 A2980 RMK AO2 T01230063
KSNL 242015Z AUTO 28010KT 10SM CLR 12/06 A2980 RMK AO2 T01220063
KSNL 241955Z AUTO 29011KT 10SM SCT017 12/06 A2980 RMK AO2 T01150060
KSNL 241935Z AUTO 28010KT 10SM BKN015 11/07 A2981 RMK AO2 T01080066
KSNL 241915Z AUTO 31008KT 10SM SCT013 10/07 A2982 RMK AO2 T00990065
KSNL 241855Z AUTO 30005G16KT 10SM CLR 08/07 A2982 RMK AO2 T00840066
KSNL 241835Z AUTO 28008KT 10SM SCT006 07/06 A2983 RMK AO2 T00700063
KSNL 241815Z AUTO 29008KT 10SM BKN006 BKN031 06/06 A2984 RMK AO2 T00620058
KSNL 241755Z AUTO 30012KT 10SM OVC004 05/05 A2986 RMK AO2 60064 T00540050 10054 20033
KSNL 241735Z AUTO 30011G15KT 10SM BKN004 BKN016 OVC026 04/04 A2987 RMK AO2 T00430040
KSNL 241715Z AUTO 30006KT 4SM -DZ BKN004 BKN009 OVC031 04/04 A2987 RMK AO2 LTG DSNT NE THRU S T00370035
KSNL 241655Z AUTO 31007KT 10SM BKN004 BKN010 OVC036 04/04 A2987 RMK AO2 LTG DSNT SE P0002 T00360035
KSNL 241635Z AUTO 34007KT 4SM RA SCT004 BKN030 OVC044 04/04 A2983 RMK AO2 LTG DSNT E AND SE P0002 T00370035
KSNL 241615Z AUTO 31010G18KT 10SM -VCTSRA OVC004 04/03 A2987 RMK AO2 LTG DSNT E THRU S T00350033
KSNL 241555Z AUTO 31008KT 5SM -RA BKN004 OVC055 04/04 A2986 RMK AO2 LTG DSNT NE THRU S P0026 T00370036
KSNL 241535Z AUTO 32004KT 5SM -RA SCT004 BKN050 OVC065 04/04 A2984 RMK AO2 LTG DSNT ALQS P0024 T00400038
KSNL 241515Z AUTO 01004KT 1SM -VCTSSN BKN003 BKN013 OVC036 04/04 A2985 RMK AO2 VIS 1/4V2 1/2 LTG DSNT ALQS P0020 T00370035
KSNL 241455Z AUTO 33012G38KT 3/4SM TSRA OVC003 04/04 A2987 RMK AO2 LTG DSNT ALQS P0032 60032 T00360035
KSNL 241435Z AUTO 02008KT 2SM -TSRA OVC003 04/03 A2979 RMK AO2 LTG DSNT ALQS P0010 T00350033
KSNL 241415Z AUTO 08006KT 2SM VCTSRA OVC003 04/03 A2982 RMK AO2 LTG DSNT ALQS P0002 T00350033
KSNL 241355Z AUTO 02006KT 3/4SM BR OVC003 03/03 A2980 RMK AO2 LTG DSNT ALQS T00330032